sensor_id;sensor_type;location;lat;lon;timestamp;P1;durP1;ratioP1;P2;durP2;ratioP2
3217;SDS011;1621;49.702;8.618;2023-06-22T00:00:32;10.70;;;6.30;;
3217;SDS011;1621;49.702;8.618;2023-06-22T00:02:59;8.10;;;6.80;;
3217;SDS011;1621;49.702;8.618;2023-06-22T00:05:25;8.67;;;7.30;;
3217;SDS011;1621;49.702;8.618;2023-06-22T00:07:52;9.47;;;6.37;;
3217;SDS011;1621;49.702;8.618;2023-06-22T00:10:18;8.17;;;6.33;;
3217;SDS011;1621;49.702;8.618;2023-06-22T00:12:45;9.23;;;6.57;;
3217;SDS011;1621;49.702;8.618;2023-06-22T00:15:11;7.17;;;5.97;;
3217;SDS011;1621;49.702;8.618;2023-06-22T00:17:38;8.30;;;6.20;;
3217;SDS011;1621;49.702;8.618;2023-06-22T00:20:05;8.63;;;6.43;;
3217;SDS011;1621;49.702;8.618;2023-06-22T00:22:33;8.80;;;7.00;;
3217;SDS011;1621;49.702;8.618;2023-06-22T00:25:04;8.90;;;6.50;;
3217;SDS011;1621;49.702;8.618;2023-06-22T00:27:30;8.90;;;7.07;;
3217;SDS011;1621;49.702;8.618;2023-06-22T00:29:56;9.97;;;7.30;;
3217;SDS011;1621;49.702;8.618;2023-06-22T00:32:23;9.07;;;7.40;;
3217;SDS011;1621;49.702;8.618;2023-06-22T00:34:50;8.83;;;7.37;;
3217;SDS011;1621;49.702;8.618;2023-06-22T00:37:17;8.93;;;8.00;;
3217;SDS011;1621;49.702;8.618;2023-06-22T00:39:43;9.57;;;8.27;;
3217;SDS011;1621;49.702;8.618;2023-06-22T00:42:09;9.70;;;8.07;;
3217;SDS011;1621;49.702;8.618;2023-06-22T00:44:36;10.63;;;7.80;;
3217;SDS011;1621;49.702;8.618;2023-06-22T00:47:02;11.63;;;8.17;;
3217;SDS011;1621;49.702;8.618;2023-06-22T00:49:28;10.53;;;7.67;;
3217;SDS011;1621;49.702;8.618;2023-06-22T00:51:56;13.40;;;8.47;;
3217;SDS011;1621;49.702;8.618;2023-06-22T00:54:23;7.93;;;7.00;;
3217;SDS011;1621;49.702;8.618;2023-06-22T00:56:50;9.60;;;7.63;;
3217;SDS011;1621;49.702;8.618;2023-06-22T00:59:17;8.20;;;7.07;;
3217;SDS011;1621;49.702;8.618;2023-06-22T01:01:44;9.10;;;7.40;;
3217;SDS011;1621;49.702;8.618;2023-06-22T01:04:10;9.73;;;8.00;;
3217;SDS011;1621;49.702;8.618;2023-06-22T01:06:38;11.87;;;8.70;;
3217;SDS011;1621;49.702;8.618;2023-06-22T01:09:11;11.10;;;8.43;;
3217;SDS011;1621;49.702;8.618;2023-06-22T01:11:41;17.83;;;9.30;;
3217;SDS011;1621;49.702;8.618;2023-06-22T01:14:12;11.80;;;9.70;;
3217;SDS011;1621;49.702;8.618;2023-06-22T01:16:40;10.00;;;8.50;;
3217;SDS011;1621;49.702;8.618;2023-06-22T01:19:09;11.07;;;9.17;;
3217;SDS011;1621;49.702;8.618;2023-06-22T01:21:42;10.53;;;8.10;;
3217;SDS011;1621;49.702;8.618;2023-06-22T01:24:14;12.13;;;8.43;;
3217;SDS011;1621;49.702;8.618;2023-06-22T01:26:42;9.83;;;7.87;;
3217;SDS011;1621;49.702;8.618;2023-06-22T01:29:11;10.30;;;8.43;;
3217;SDS011;1621;49.702;8.618;2023-06-22T01:31:39;8.93;;;7.70;;
3217;SDS011;1621;49.702;8.618;2023-06-22T01:34:06;15.70;;;9.13;;
3217;SDS011;1621;49.702;8.618;2023-06-22T01:36:32;12.77;;;8.80;;
3217;SDS011;1621;49.702;8.618;2023-06-22T01:38:59;14.20;;;8.00;;
3217;SDS011;1621;49.702;8.618;2023-06-22T01:41:26;9.60;;;8.47;;
3217;SDS011;1621;49.702;8.618;2023-06-22T01:43:54;10.70;;;8.67;;
3217;SDS011;1621;49.702;8.618;2023-06-22T01:46:22;9.10;;;7.93;;
3217;SDS011;1621;49.702;8.618;2023-06-22T01:48:48;11.87;;;8.80;;
3217;SDS011;1621;49.702;8.618;2023-06-22T01:51:15;10.23;;;8.80;;
3217;SDS011;1621;49.702;8.618;2023-06-22T01:53:42;11.57;;;8.97;;
3217;SDS011;1621;49.702;8.618;2023-06-22T01:56:08;13.40;;;8.83;;
3217;SDS011;1621;49.702;8.618;2023-06-22T01:58:35;10.33;;;7.87;;
3217;SDS011;1621;49.702;8.618;2023-06-22T02:01:05;11.20;;;8.50;;
3217;SDS011;1621;49.702;8.618;2023-06-22T02:03:37;10.53;;;7.90;;
3217;SDS011;1621;49.702;8.618;2023-06-22T02:06:05;11.80;;;9.63;;
3217;SDS011;1621;49.702;8.618;2023-06-22T02:08:34;13.07;;;9.70;;
3217;SDS011;1621;49.702;8.618;2023-06-22T02:11:01;10.17;;;8.67;;
3217;SDS011;1621;49.702;8.618;2023-06-22T02:13:28;9.13;;;8.10;;
3217;SDS011;1621;49.702;8.618;2023-06-22T02:15:54;11.30;;;8.70;;
3217;SDS011;1621;49.702;8.618;2023-06-22T02:18:21;11.03;;;8.67;;
3217;SDS011;1621;49.702;8.618;2023-06-22T02:20:48;12.53;;;9.10;;
3217;SDS011;1621;49.702;8.618;2023-06-22T02:23:14;15.33;;;9.80;;
3217;SDS011;1621;49.702;8.618;2023-06-22T02:25:41;13.13;;;8.97;;
3217;SDS011;1621;49.702;8.618;2023-06-22T02:28:09;11.33;;;8.93;;
3217;SDS011;1621;49.702;8.618;2023-06-22T02:30:35;12.60;;;9.10;;
3217;SDS011;1621;49.702;8.618;2023-06-22T02:33:01;8.97;;;8.07;;
3217;SDS011;1621;49.702;8.618;2023-06-22T02:35:28;14.13;;;8.57;;
3217;SDS011;1621;49.702;8.618;2023-06-22T02:37:57;10.37;;;8.47;;
3217;SDS011;1621;49.702;8.618;2023-06-22T02:40:24;11.40;;;9.47;;
3217;SDS011;1621;49.702;8.618;2023-06-22T02:42:50;9.63;;;8.60;;
3217;SDS011;1621;49.702;8.618;2023-06-22T02:45:17;10.77;;;8.17;;
3217;SDS011;1621;49.702;8.618;2023-06-22T02:47:43;10.27;;;8.23;;
3217;SDS011;1621;49.702;8.618;2023-06-22T02:50:09;9.87;;;8.43;;
3217;SDS011;1621;49.702;8.618;2023-06-22T02:52:36;12.00;;;8.50;;
3217;SDS011;1621;49.702;8.618;2023-06-22T02:55:05;11.43;;;8.10;;
3217;SDS011;1621;49.702;8.618;2023-06-22T02:57:32;8.63;;;7.33;;
3217;SDS011;1621;49.702;8.618;2023-06-22T02:59:58;8.60;;;7.60;;
3217;SDS011;1621;49.702;8.618;2023-06-22T03:02:25;10.97;;;9.50;;
3217;SDS011;1621;49.702;8.618;2023-06-22T03:04:52;12.53;;;8.23;;
3217;SDS011;1621;49.702;8.618;2023-06-22T03:07:18;11.17;;;7.43;;
3217;SDS011;1621;49.702;8.618;2023-06-22T03:09:45;11.20;;;8.23;;
3217;SDS011;1621;49.702;8.618;2023-06-22T03:12:12;8.77;;;7.30;;
3217;SDS011;1621;49.702;8.618;2023-06-22T03:14:38;9.60;;;7.73;;
3217;SDS011;1621;49.702;8.618;2023-06-22T03:17:05;8.60;;;7.20;;
3217;SDS011;1621;49.702;8.618;2023-06-22T03:19:31;8.27;;;7.03;;
3217;SDS011;1621;49.702;8.618;2023-06-22T03:21:58;9.57;;;8.13;;
3217;SDS011;1621;49.702;8.618;2023-06-22T03:24:25;9.30;;;7.90;;
3217;SDS011;1621;49.702;8.618;2023-06-22T03:26:54;9.13;;;7.90;;
3217;SDS011;1621;49.702;8.618;2023-06-22T03:29:22;9.20;;;6.93;;
3217;SDS011;1621;49.702;8.618;2023-06-22T03:31:48;7.97;;;7.13;;
3217;SDS011;1621;49.702;8.618;2023-06-22T03:34:15;8.33;;;7.17;;
3217;SDS011;1621;49.702;8.618;2023-06-22T03:36:41;10.90;;;7.53;;
3217;SDS011;1621;49.702;8.618;2023-06-22T03:39:10;12.20;;;7.50;;
3217;SDS011;1621;49.702;8.618;2023-06-22T03:41:36;8.33;;;6.87;;
3217;SDS011;1621;49.702;8.618;2023-06-22T03:44:02;8.00;;;6.57;;
3217;SDS011;1621;49.702;8.618;2023-06-22T03:46:30;10.63;;;7.30;;
3217;SDS011;1621;49.702;8.618;2023-06-22T03:48:56;9.17;;;6.53;;
3217;SDS011;1621;49.702;8.618;2023-06-22T03:51:23;10.60;;;6.93;;
3217;SDS011;1621;49.702;8.618;2023-06-22T03:53:49;8.23;;;6.50;;
3217;SDS011;1621;49.702;8.618;2023-06-22T03:56:15;9.30;;;6.97;;
3217;SDS011;1621;49.702;8.618;2023-06-22T03:58:46;9.70;;;6.40;;
3217;SDS011;1621;49.702;8.618;2023-06-22T04:01:12;9.60;;;7.23;;
3217;SDS011;1621;49.702;8.618;2023-06-22T04:03:40;8.87;;;6.77;;
3217;SDS011;1621;49.702;8.618;2023-06-22T04:06:07;7.40;;;6.40;;
3217;SDS011;1621;49.702;8.618;2023-06-22T04:08:33;9.77;;;6.57;;
3217;SDS011;1621;49.702;8.618;2023-06-22T04:10:59;11.83;;;6.70;;
3217;SDS011;1621;49.702;8.618;2023-06-22T04:13:25;9.80;;;7.27;;
3217;SDS011;1621;49.702;8.618;2023-06-22T04:15:52;9.40;;;7.80;;
3217;SDS011;1621;49.702;8.618;2023-06-22T04:18:18;9.43;;;8.00;;
3217;SDS011;1621;49.702;8.618;2023-06-22T04:20:46;10.80;;;8.83;;
3217;SDS011;1621;49.702;8.618;2023-06-22T04:23:12;12.03;;;8.33;;
3217;SDS011;1621;49.702;8.618;2023-06-22T04:25:38;7.67;;;6.50;;
3217;SDS011;1621;49.702;8.618;2023-06-22T04:28:05;8.37;;;7.43;;
3217;SDS011;1621;49.702;8.618;2023-06-22T04:30:37;8.23;;;7.10;;
3217;SDS011;1621;49.702;8.618;2023-06-22T04:33:04;11.03;;;7.67;;
3217;SDS011;1621;49.702;8.618;2023-06-22T04:35:30;7.50;;;6.67;;
3217;SDS011;1621;49.702;8.618;2023-06-22T04:37:58;8.93;;;7.60;;
3217;SDS011;1621;49.702;8.618;2023-06-22T04:40:24;9.83;;;7.50;;
3217;SDS011;1621;49.702;8.618;2023-06-22T04:42:51;8.50;;;7.23;;
3217;SDS011;1621;49.702;8.618;2023-06-22T04:45:20;8.57;;;6.90;;
3217;SDS011;1621;49.702;8.618;2023-06-22T04:47:46;7.97;;;6.87;;
3217;SDS011;1621;49.702;8.618;2023-06-22T04:50:12;8.20;;;6.90;;
3217;SDS011;1621;49.702;8.618;2023-06-22T04:52:39;14.80;;;7.50;;
3217;SDS011;1621;49.702;8.618;2023-06-22T04:55:07;7.63;;;6.83;;
3217;SDS011;1621;49.702;8.618;2023-06-22T04:57:33;12.23;;;6.87;;
3217;SDS011;1621;49.702;8.618;2023-06-22T05:00:00;9.30;;;7.30;;
3217;SDS011;1621;49.702;8.618;2023-06-22T05:02:26;9.50;;;7.50;;
3217;SDS011;1621;49.702;8.618;2023-06-22T05:04:57;8.23;;;7.00;;
3217;SDS011;1621;49.702;8.618;2023-06-22T05:07:23;8.73;;;7.83;;
3217;SDS011;1621;49.702;8.618;2023-06-22T05:09:50;9.07;;;8.10;;
3217;SDS011;1621;49.702;8.618;2023-06-22T05:12:18;11.70;;;8.60;;
3217;SDS011;1621;49.702;8.618;2023-06-22T05:14:44;13.97;;;8.83;;
3217;SDS011;1621;49.702;8.618;2023-06-22T05:17:10;10.63;;;9.53;;
3217;SDS011;1621;49.702;8.618;2023-06-22T05:19:38;9.50;;;8.50;;
3217;SDS011;1621;49.702;8.618;2023-06-22T05:22:10;15.70;;;10.27;;
3217;SDS011;1621;49.702;8.618;2023-06-22T05:24:37;11.30;;;9.60;;
3217;SDS011;1621;49.702;8.618;2023-06-22T05:27:04;12.77;;;9.10;;
3217;SDS011;1621;49.702;8.618;2023-06-22T05:29:32;10.43;;;8.67;;
3217;SDS011;1621;49.702;8.618;2023-06-22T05:31:58;11.30;;;9.00;;
3217;SDS011;1621;49.702;8.618;2023-06-22T05:34:24;11.90;;;9.17;;
3217;SDS011;1621;49.702;8.618;2023-06-22T05:36:51;10.97;;;9.53;;
3217;SDS011;1621;49.702;8.618;2023-06-22T05:39:17;10.63;;;8.47;;
3217;SDS011;1621;49.702;8.618;2023-06-22T05:41:44;13.00;;;9.23;;
3217;SDS011;1621;49.702;8.618;2023-06-22T05:44:11;9.93;;;8.93;;
3217;SDS011;1621;49.702;8.618;2023-06-22T05:46:40;11.20;;;9.40;;
3217;SDS011;1621;49.702;8.618;2023-06-22T05:49:09;13.33;;;9.63;;
3217;SDS011;1621;49.702;8.618;2023-06-22T05:51:35;11.60;;;9.03;;
3217;SDS011;1621;49.702;8.618;2023-06-22T05:54:02;13.00;;;9.10;;
3217;SDS011;1621;49.702;8.618;2023-06-22T05:56:28;13.23;;;10.70;;
3217;SDS011;1621;49.702;8.618;2023-06-22T05:58:54;9.87;;;8.73;;
3217;SDS011;1621;49.702;8.618;2023-06-22T06:01:20;12.93;;;9.33;;
3217;SDS011;1621;49.702;8.618;2023-06-22T06:03:48;11.13;;;8.73;;
3217;SDS011;1621;49.702;8.618;2023-06-22T06:06:15;10.00;;;8.63;;
3217;SDS011;1621;49.702;8.618;2023-06-22T06:08:41;11.17;;;8.57;;
3217;SDS011;1621;49.702;8.618;2023-06-22T06:11:07;13.90;;;9.30;;
3217;SDS011;1621;49.702;8.618;2023-06-22T06:13:33;11.80;;;9.33;;
3217;SDS011;1621;49.702;8.618;2023-06-22T06:15:59;10.80;;;9.60;;
3217;SDS011;1621;49.702;8.618;2023-06-22T06:18:26;10.33;;;7.90;;
3217;SDS011;1621;49.702;8.618;2023-06-22T06:20:53;11.07;;;8.63;;
3217;SDS011;1621;49.702;8.618;2023-06-22T06:23:20;10.57;;;7.83;;
3217;SDS011;1621;49.702;8.618;2023-06-22T06:25:46;10.20;;;8.20;;
3217;SDS011;1621;49.702;8.618;2023-06-22T06:28:12;9.73;;;8.73;;
3217;SDS011;1621;49.702;8.618;2023-06-22T06:30:38;11.23;;;8.33;;
3217;SDS011;1621;49.702;8.618;2023-06-22T06:33:06;10.97;;;7.83;;
3217;SDS011;1621;49.702;8.618;2023-06-22T06:35:33;10.03;;;7.50;;
3217;SDS011;1621;49.702;8.618;2023-06-22T06:38:01;14.70;;;9.03;;
3217;SDS011;1621;49.702;8.618;2023-06-22T06:40:27;8.17;;;7.20;;
3217;SDS011;1621;49.702;8.618;2023-06-22T06:42:53;9.23;;;7.60;;
3217;SDS011;1621;49.702;8.618;2023-06-22T06:45:20;9.40;;;8.40;;
3217;SDS011;1621;49.702;8.618;2023-06-22T06:47:48;10.90;;;7.83;;
3217;SDS011;1621;49.702;8.618;2023-06-22T06:50:14;8.70;;;7.30;;
3217;SDS011;1621;49.702;8.618;2023-06-22T06:52:41;11.60;;;8.77;;
3217;SDS011;1621;49.702;8.618;2023-06-22T06:55:09;8.77;;;7.77;;
3217;SDS011;1621;49.702;8.618;2023-06-22T06:57:37;10.40;;;8.00;;
3217;SDS011;1621;49.702;8.618;2023-06-22T07:00:03;10.00;;;8.10;;
3217;SDS011;1621;49.702;8.618;2023-06-22T07:02:37;10.43;;;8.40;;
3217;SDS011;1621;49.702;8.618;2023-06-22T07:05:04;11.70;;;8.50;;
3217;SDS011;1621;49.702;8.618;2023-06-22T07:07:30;9.67;;;8.30;;
3217;SDS011;1621;49.702;8.618;2023-06-22T07:09:56;9.57;;;7.70;;
3217;SDS011;1621;49.702;8.618;2023-06-22T07:12:24;9.30;;;8.03;;
3217;SDS011;1621;49.702;8.618;2023-06-22T07:14:51;8.43;;;7.53;;
3217;SDS011;1621;49.702;8.618;2023-06-22T07:17:17;10.90;;;8.80;;
3217;SDS011;1621;49.702;8.618;2023-06-22T07:19:43;9.60;;;8.10;;
3217;SDS011;1621;49.702;8.618;2023-06-22T07:22:10;11.07;;;8.40;;
3217;SDS011;1621;49.702;8.618;2023-06-22T07:24:36;10.10;;;7.83;;
3217;SDS011;1621;49.702;8.618;2023-06-22T07:27:03;9.37;;;7.67;;
3217;SDS011;1621;49.702;8.618;2023-06-22T07:29:33;9.67;;;8.07;;
3217;SDS011;1621;49.702;8.618;2023-06-22T07:32:00;10.23;;;8.67;;
3217;SDS011;1621;49.702;8.618;2023-06-22T07:34:29;13.33;;;9.90;;
3217;SDS011;1621;49.702;8.618;2023-06-22T07:36:56;22.60;;;11.57;;
3217;SDS011;1621;49.702;8.618;2023-06-22T07:39:22;16.27;;;9.60;;
3217;SDS011;1621;49.702;8.618;2023-06-22T07:41:50;14.60;;;9.40;;
3217;SDS011;1621;49.702;8.618;2023-06-22T07:44:17;10.63;;;7.77;;
3217;SDS011;1621;49.702;8.618;2023-06-22T07:46:44;11.63;;;8.83;;
3217;SDS011;1621;49.702;8.618;2023-06-22T07:49:11;13.80;;;8.37;;
3217;SDS011;1621;49.702;8.618;2023-06-22T07:51:37;12.93;;;9.13;;
3217;SDS011;1621;49.702;8.618;2023-06-22T07:54:03;10.60;;;8.60;;
3217;SDS011;1621;49.702;8.618;2023-06-22T07:56:30;9.47;;;8.47;;
3217;SDS011;1621;49.702;8.618;2023-06-22T07:58:57;10.73;;;7.83;;
3217;SDS011;1621;49.702;8.618;2023-06-22T08:01:24;9.40;;;7.13;;
3217;SDS011;1621;49.702;8.618;2023-06-22T08:03:51;10.60;;;8.50;;
3217;SDS011;1621;49.702;8.618;2023-06-22T08:06:18;9.50;;;7.80;;
3217;SDS011;1621;49.702;8.618;2023-06-22T08:08:44;10.93;;;8.50;;
3217;SDS011;1621;49.702;8.618;2023-06-22T08:11:13;9.50;;;8.43;;
3217;SDS011;1621;49.702;8.618;2023-06-22T08:13:39;9.53;;;8.07;;
3217;SDS011;1621;49.702;8.618;2023-06-22T08:16:05;10.23;;;8.00;;
3217;SDS011;1621;49.702;8.618;2023-06-22T08:18:32;10.07;;;8.77;;
3217;SDS011;1621;49.702;8.618;2023-06-22T08:21:00;8.70;;;7.80;;
3217;SDS011;1621;49.702;8.618;2023-06-22T08:23:26;10.93;;;7.83;;
3217;SDS011;1621;49.702;8.618;2023-06-22T08:25:52;10.57;;;8.77;;
3217;SDS011;1621;49.702;8.618;2023-06-22T08:28:18;12.67;;;8.77;;
3217;SDS011;1621;49.702;8.618;2023-06-22T08:30:45;12.00;;;8.50;;
3217;SDS011;1621;49.702;8.618;2023-06-22T08:33:11;8.20;;;7.17;;
3217;SDS011;1621;49.702;8.618;2023-06-22T08:35:37;14.87;;;9.47;;
3217;SDS011;1621;49.702;8.618;2023-06-22T08:38:05;9.30;;;8.10;;
3217;SDS011;1621;49.702;8.618;2023-06-22T08:40:31;8.10;;;7.23;;
3217;SDS011;1621;49.702;8.618;2023-06-22T08:42:58;8.70;;;7.80;;
3217;SDS011;1621;49.702;8.618;2023-06-22T08:45:24;8.50;;;7.60;;
3217;SDS011;1621;49.702;8.618;2023-06-22T08:47:50;8.30;;;7.40;;
3217;SDS011;1621;49.702;8.618;2023-06-22T08:50:16;8.27;;;7.23;;
3217;SDS011;1621;49.702;8.618;2023-06-22T08:52:43;11.17;;;7.77;;
3217;SDS011;1621;49.702;8.618;2023-06-22T08:55:12;11.93;;;8.37;;
3217;SDS011;1621;49.702;8.618;2023-06-22T08:57:39;7.50;;;6.70;;
3217;SDS011;1621;49.702;8.618;2023-06-22T09:00:08;10.10;;;7.03;;
3217;SDS011;1621;49.702;8.618;2023-06-22T09:02:42;8.53;;;7.60;;
3217;SDS011;1621;49.702;8.618;2023-06-22T09:05:09;12.30;;;6.80;;
3217;SDS011;1621;49.702;8.618;2023-06-22T09:07:35;9.60;;;8.20;;
3217;SDS011;1621;49.702;8.618;2023-06-22T09:10:01;9.63;;;7.70;;
3217;SDS011;1621;49.702;8.618;2023-06-22T09:12:31;9.20;;;7.93;;
3217;SDS011;1621;49.702;8.618;2023-06-22T09:14:57;9.97;;;7.50;;
3217;SDS011;1621;49.702;8.618;2023-06-22T09:17:25;9.77;;;7.97;;
3217;SDS011;1621;49.702;8.618;2023-06-22T09:19:51;8.30;;;6.90;;
3217;SDS011;1621;49.702;8.618;2023-06-22T09:22:17;11.07;;;7.53;;
3217;SDS011;1621;49.702;8.618;2023-06-22T09:24:44;9.07;;;7.23;;
3217;SDS011;1621;49.702;8.618;2023-06-22T09:27:10;8.73;;;7.70;;
3217;SDS011;1621;49.702;8.618;2023-06-22T09:29:38;9.80;;;6.83;;
3217;SDS011;1621;49.702;8.618;2023-06-22T09:32:04;8.73;;;7.17;;
3217;SDS011;1621;49.702;8.618;2023-06-22T09:34:31;7.90;;;6.60;;
3217;SDS011;1621;49.702;8.618;2023-06-22T09:36:57;9.87;;;7.23;;
3217;SDS011;1621;49.702;8.618;2023-06-22T09:39:25;9.50;;;7.63;;
3217;SDS011;1621;49.702;8.618;2023-06-22T09:41:51;8.47;;;7.17;;
3217;SDS011;1621;49.702;8.618;2023-06-22T09:44:18;10.50;;;7.23;;
3217;SDS011;1621;49.702;8.618;2023-06-22T09:46:45;12.13;;;6.97;;
3217;SDS011;1621;49.702;8.618;2023-06-22T09:49:11;8.23;;;6.40;;
3217;SDS011;1621;49.702;8.618;2023-06-22T09:51:38;8.53;;;7.00;;
3217;SDS011;1621;49.702;8.618;2023-06-22T09:54:04;8.67;;;7.77;;
3217;SDS011;1621;49.702;8.618;2023-06-22T09:56:30;8.80;;;7.17;;
3217;SDS011;1621;49.702;8.618;2023-06-22T09:58:56;8.43;;;6.97;;
3217;SDS011;1621;49.702;8.618;2023-06-22T10:01:23;7.60;;;6.73;;
3217;SDS011;1621;49.702;8.618;2023-06-22T10:03:52;8.97;;;7.50;;
3217;SDS011;1621;49.702;8.618;2023-06-22T10:06:19;10.73;;;7.20;;
3217;SDS011;1621;49.702;8.618;2023-06-22T10:08:45;7.43;;;6.63;;
3217;SDS011;1621;49.702;8.618;2023-06-22T10:11:13;9.53;;;7.23;;
3217;SDS011;1621;49.702;8.618;2023-06-22T10:13:39;8.00;;;6.90;;
3217;SDS011;1621;49.702;8.618;2023-06-22T10:16:05;9.40;;;7.80;;
3217;SDS011;1621;49.702;8.618;2023-06-22T10:18:32;10.13;;;6.73;;
3217;SDS011;1621;49.702;8.618;2023-06-22T10:20:59;8.90;;;7.20;;
3217;SDS011;1621;49.702;8.618;2023-06-22T10:23:26;8.87;;;7.90;;
3217;SDS011;1621;49.702;8.618;2023-06-22T10:25:52;8.90;;;7.07;;
3217;SDS011;1621;49.702;8.618;2023-06-22T10:28:18;9.60;;;7.03;;
3217;SDS011;1621;49.702;8.618;2023-06-22T10:30:44;8.70;;;7.70;;
3217;SDS011;1621;49.702;8.618;2023-06-22T10:33:11;8.37;;;6.53;;
3217;SDS011;1621;49.702;8.618;2023-06-22T10:35:37;10.33;;;7.00;;
3217;SDS011;1621;49.702;8.618;2023-06-22T10:38:05;12.30;;;6.33;;
3217;SDS011;1621;49.702;8.618;2023-06-22T10:40:32;10.10;;;8.03;;
3217;SDS011;1621;49.702;8.618;2023-06-22T10:42:59;17.73;;;7.27;;
3217;SDS011;1621;49.702;8.618;2023-06-22T10:45:25;10.10;;;6.40;;
3217;SDS011;1621;49.702;8.618;2023-06-22T10:47:52;10.87;;;7.43;;
3217;SDS011;1621;49.702;8.618;2023-06-22T10:50:18;9.40;;;6.30;;
3217;SDS011;1621;49.702;8.618;2023-06-22T10:52:45;10.43;;;6.77;;
3217;SDS011;1621;49.702;8.618;2023-06-22T10:55:12;9.87;;;7.00;;
3217;SDS011;1621;49.702;8.618;2023-06-22T10:57:39;9.70;;;7.30;;
3217;SDS011;1621;49.702;8.618;2023-06-22T11:00:08;7.67;;;5.87;;
3217;SDS011;1621;49.702;8.618;2023-06-22T11:02:36;7.43;;;5.63;;
3217;SDS011;1621;49.702;8.618;2023-06-22T11:05:02;9.30;;;6.77;;
3217;SDS011;1621;49.702;8.618;2023-06-22T11:07:29;8.07;;;5.97;;
3217;SDS011;1621;49.702;8.618;2023-06-22T11:09:55;9.60;;;5.93;;
3217;SDS011;1621;49.702;8.618;2023-06-22T11:12:23;9.60;;;5.73;;
3217;SDS011;1621;49.702;8.618;2023-06-22T11:14:49;8.80;;;5.80;;
3217;SDS011;1621;49.702;8.618;2023-06-22T11:17:16;9.47;;;5.90;;
3217;SDS011;1621;49.702;8.618;2023-06-22T11:19:43;7.00;;;5.77;;
3217;SDS011;1621;49.702;8.618;2023-06-22T11:22:09;12.90;;;5.67;;
3217;SDS011;1621;49.702;8.618;2023-06-22T11:24:35;7.93;;;5.50;;
3217;SDS011;1621;49.702;8.618;2023-06-22T11:27:02;10.70;;;7.20;;
3217;SDS011;1621;49.702;8.618;2023-06-22T11:29:29;11.23;;;6.20;;
3217;SDS011;1621;49.702;8.618;2023-06-22T11:31:56;8.70;;;5.80;;
3217;SDS011;1621;49.702;8.618;2023-06-22T11:34:22;15.53;;;5.70;;
3217;SDS011;1621;49.702;8.618;2023-06-22T11:36:48;11.70;;;6.50;;
3217;SDS011;1621;49.702;8.618;2023-06-22T11:39:14;8.30;;;5.23;;
3217;SDS011;1621;49.702;8.618;2023-06-22T11:41:41;13.97;;;5.23;;
3217;SDS011;1621;49.702;8.618;2023-06-22T11:44:07;13.03;;;6.10;;
3217;SDS011;1621;49.702;8.618;2023-06-22T11:46:35;10.90;;;5.83;;
3217;SDS011;1621;49.702;8.618;2023-06-22T11:49:01;10.20;;;5.33;;
3217;SDS011;1621;49.702;8.618;2023-06-22T11:51:27;8.30;;;5.20;;
3217;SDS011;1621;49.702;8.618;2023-06-22T11:53:56;10.80;;;5.00;;
3217;SDS011;1621;49.702;8.618;2023-06-22T11:56:22;9.43;;;6.50;;
3217;SDS011;1621;49.702;8.618;2023-06-22T11:58:48;8.83;;;6.10;;
3217;SDS011;1621;49.702;8.618;2023-06-22T12:01:15;10.50;;;5.87;;
3217;SDS011;1621;49.702;8.618;2023-06-22T12:03:42;12.17;;;5.80;;
3217;SDS011;1621;49.702;8.618;2023-06-22T12:06:09;10.60;;;5.33;;
3217;SDS011;1621;49.702;8.618;2023-06-22T12:08:35;10.27;;;5.57;;
3217;SDS011;1621;49.702;8.618;2023-06-22T12:11:01;9.03;;;5.00;;
3217;SDS011;1621;49.702;8.618;2023-06-22T12:13:27;10.70;;;5.13;;
3217;SDS011;1621;49.702;8.618;2023-06-22T12:15:54;9.63;;;5.57;;
3217;SDS011;1621;49.702;8.618;2023-06-22T12:18:20;15.03;;;5.90;;
3217;SDS011;1621;49.702;8.618;2023-06-22T12:20:48;8.07;;;5.50;;
3217;SDS011;1621;49.702;8.618;2023-06-22T12:23:14;13.80;;;5.43;;
3217;SDS011;1621;49.702;8.618;2023-06-22T12:25:40;6.53;;;4.73;;
3217;SDS011;1621;49.702;8.618;2023-06-22T12:28:07;12.70;;;5.60;;
3217;SDS011;1621;49.702;8.618;2023-06-22T12:30:33;8.27;;;4.63;;
3217;SDS011;1621;49.702;8.618;2023-06-22T12:32:59;9.07;;;5.17;;
3217;SDS011;1621;49.702;8.618;2023-06-22T12:35:25;10.20;;;5.60;;
3217;SDS011;1621;49.702;8.618;2023-06-22T12:37:53;9.90;;;5.80;;
3217;SDS011;1621;49.702;8.618;2023-06-22T12:40:19;10.80;;;5.27;;
3217;SDS011;1621;49.702;8.618;2023-06-22T12:42:46;10.27;;;5.17;;
3217;SDS011;1621;49.702;8.618;2023-06-22T12:45:12;11.60;;;5.10;;
3217;SDS011;1621;49.702;8.618;2023-06-22T12:47:38;10.23;;;5.63;;
3217;SDS011;1621;49.702;8.618;2023-06-22T12:50:05;10.27;;;6.03;;
3217;SDS011;1621;49.702;8.618;2023-06-22T12:52:31;9.47;;;4.77;;
3217;SDS011;1621;49.702;8.618;2023-06-22T12:54:59;7.50;;;4.80;;
3217;SDS011;1621;49.702;8.618;2023-06-22T12:57:25;8.47;;;6.20;;
3217;SDS011;1621;49.702;8.618;2023-06-22T12:59:52;10.50;;;5.47;;
3217;SDS011;1621;49.702;8.618;2023-06-22T13:02:18;12.40;;;5.43;;
3217;SDS011;1621;49.702;8.618;2023-06-22T13:04:44;7.77;;;5.30;;
3217;SDS011;1621;49.702;8.618;2023-06-22T13:07:11;9.83;;;5.63;;
3217;SDS011;1621;49.702;8.618;2023-06-22T13:09:37;9.50;;;5.50;;
3217;SDS011;1621;49.702;8.618;2023-06-22T13:12:05;11.77;;;5.63;;
3217;SDS011;1621;49.702;8.618;2023-06-22T13:14:31;9.70;;;4.83;;
3217;SDS011;1621;49.702;8.618;2023-06-22T13:16:58;11.23;;;4.90;;
3217;SDS011;1621;49.702;8.618;2023-06-22T13:19:24;10.27;;;5.30;;
3217;SDS011;1621;49.702;8.618;2023-06-22T13:21:53;8.60;;;5.37;;
3217;SDS011;1621;49.702;8.618;2023-06-22T13:24:19;9.80;;;4.63;;
3217;SDS011;1621;49.702;8.618;2023-06-22T13:26:45;9.93;;;4.93;;
3217;SDS011;1621;49.702;8.618;2023-06-22T13:29:13;10.50;;;4.70;;
3217;SDS011;1621;49.702;8.618;2023-06-22T13:31:39;14.00;;;5.10;;
3217;SDS011;1621;49.702;8.618;2023-06-22T13:34:05;10.87;;;4.50;;
3217;SDS011;1621;49.702;8.618;2023-06-22T13:36:31;5.80;;;4.10;;
3217;SDS011;1621;49.702;8.618;2023-06-22T13:38:58;9.73;;;4.80;;
3217;SDS011;1621;49.702;8.618;2023-06-22T13:41:24;9.40;;;4.10;;
3217;SDS011;1621;49.702;8.618;2023-06-22T13:43:50;10.00;;;4.57;;
3217;SDS011;1621;49.702;8.618;2023-06-22T13:46:18;6.87;;;4.57;;
3217;SDS011;1621;49.702;8.618;2023-06-22T13:48:44;13.50;;;4.87;;
3217;SDS011;1621;49.702;8.618;2023-06-22T13:51:11;9.27;;;4.60;;
3217;SDS011;1621;49.702;8.618;2023-06-22T13:53:37;7.43;;;4.37;;
3217;SDS011;1621;49.702;8.618;2023-06-22T13:56:03;7.00;;;4.30;;
3217;SDS011;1621;49.702;8.618;2023-06-22T13:58:29;11.00;;;4.77;;
3217;SDS011;1621;49.702;8.618;2023-06-22T14:00:56;8.73;;;5.07;;
3217;SDS011;1621;49.702;8.618;2023-06-22T14:03:23;8.17;;;4.40;;
3217;SDS011;1621;49.702;8.618;2023-06-22T14:05:50;8.60;;;4.50;;
3217;SDS011;1621;49.702;8.618;2023-06-22T14:08:19;9.23;;;4.47;;
3217;SDS011;1621;49.702;8.618;2023-06-22T14:10:46;6.93;;;3.80;;
3217;SDS011;1621;49.702;8.618;2023-06-22T14:13:12;11.60;;;5.50;;
3217;SDS011;1621;49.702;8.618;2023-06-22T14:15:38;11.40;;;5.20;;
3217;SDS011;1621;49.702;8.618;2023-06-22T14:18:04;9.33;;;4.83;;
3217;SDS011;1621;49.702;8.618;2023-06-22T14:20:32;12.30;;;5.00;;
3217;SDS011;1621;49.702;8.618;2023-06-22T14:22:58;8.30;;;5.00;;
3217;SDS011;1621;49.702;8.618;2023-06-22T14:25:25;12.60;;;4.83;;
3217;SDS011;1621;49.702;8.618;2023-06-22T14:27:51;11.30;;;3.90;;
3217;SDS011;1621;49.702;8.618;2023-06-22T14:30:17;13.40;;;4.33;;
3217;SDS011;1621;49.702;8.618;2023-06-22T14:32:43;9.77;;;4.30;;
3217;SDS011;1621;49.702;8.618;2023-06-22T14:35:10;6.50;;;4.30;;
3217;SDS011;1621;49.702;8.618;2023-06-22T14:37:37;8.73;;;4.60;;
3217;SDS011;1621;49.702;8.618;2023-06-22T14:40:04;8.77;;;4.50;;
3217;SDS011;1621;49.702;8.618;2023-06-22T14:42:30;11.43;;;4.87;;
3217;SDS011;1621;49.702;8.618;2023-06-22T14:44:57;8.70;;;5.00;;
3217;SDS011;1621;49.702;8.618;2023-06-22T14:47:23;8.27;;;4.20;;
3217;SDS011;1621;49.702;8.618;2023-06-22T14:49:49;10.03;;;4.50;;
3217;SDS011;1621;49.702;8.618;2023-06-22T14:52:15;9.90;;;4.33;;
3217;SDS011;1621;49.702;8.618;2023-06-22T14:54:43;12.73;;;4.70;;
3217;SDS011;1621;49.702;8.618;2023-06-22T14:57:09;10.20;;;4.60;;
3217;SDS011;1621;49.702;8.618;2023-06-22T14:59:36;9.70;;;5.27;;
3217;SDS011;1621;49.702;8.618;2023-06-22T15:02:02;11.40;;;4.80;;
3217;SDS011;1621;49.702;8.618;2023-06-22T15:04:28;10.30;;;4.63;;